PABT/BTT METAR and TAF weather

Enter ICAO airport designator
Station Type Date Time Source
PABT METAR 2019/02/23 22:53 UTC NOAA

PABT 232253Z 36006KT 10SM BKN035 BKN110 M09/M14 A3035 RMK AO2 SLP297 T10941139 PNO


Station Type Date Time Source
PABT Decoded METAR 2019/02/23 22:53 UTC NOAA

BETTLES AIRPORT, AK, United States (PABT) 66-54N 151-31W 196M
Feb 23, 2019 - 05:53 PM EST / 2019.02.23 2253 UTC
Wind: from the N (360 degrees) at 7 MPH (6 KT):0
Visibility: 10 mile(s):0
Sky conditions: mostly cloudy
Temperature: 15.1 F (-9.4 C)
Windchill: 5 F (-15 C):1
Dew Point: 7.0 F (-13.9 C)
Relative Humidity: 69%
Pressure (altimeter): 30.35 in. Hg (1027 hPa)
ob: PABT 232253Z 36006KT 10SM BKN035 BKN110 M09/M14 A3035 RMK AO2 SLP297 T10941139 PNO
cycle: 23

Station Type Date Time Source
PABT TAF 2019/02/23 18:54 UTC NOAA

TAF PABT 231751Z 2318/2418 33005KT P6SM -SN BKN060
FM240300 36006KT P6SM SCT060 BKN100


Example: see airport list